createdAt,value
2019-04-21T00:00:32.483Z,1013.14
2019-04-21T00:01:35.633Z,1013.17
2019-04-21T00:02:35.770Z,1013.19
2019-04-21T00:03:40.205Z,1013.16
2019-04-21T00:04:48.341Z,1013.10
2019-04-21T00:05:53.312Z,1013.15
2019-04-21T00:06:56.877Z,1013.11
2019-04-21T00:07:52.788Z,1013.11
2019-04-21T00:08:57.955Z,1013.03
2019-04-21T00:09:53.749Z,1013.02
2019-04-21T00:11:01.130Z,1013.03
2019-04-21T00:11:55.617Z,1013.04
2019-04-21T00:12:48.941Z,1013.01
2019-04-21T00:13:46.737Z,1012.98
2019-04-21T00:14:43.833Z,1013.03
2019-04-21T00:15:40.742Z,1012.96
2019-04-21T00:16:43.196Z,1013.00
2019-04-21T00:17:34.719Z,1012.96
2019-04-21T00:18:41.800Z,1012.93
2019-04-21T00:19:35.400Z,1012.95
2019-04-21T00:20:40.860Z,1012.89
2019-04-21T00:21:38.495Z,1012.91
2019-04-21T00:22:44.346Z,1012.89
2019-04-21T00:23:49.610Z,1012.83
2019-04-21T00:24:46.218Z,1012.84
2019-04-21T00:25:45.817Z,1012.85
2019-04-21T00:26:49.313Z,1012.82
2019-04-21T00:27:47.822Z,1012.86
2019-04-21T00:28:59.406Z,1012.86
2019-04-21T00:29:51.983Z,1012.83
2019-04-21T00:30:50.550Z,1012.84
2019-04-21T00:31:45.501Z,1012.80
2019-04-21T00:32:45.063Z,1012.77
2019-04-21T00:33:35.634Z,1012.76
2019-04-21T00:34:32.208Z,1012.90
2019-04-21T00:35:39.151Z,1012.82
2019-04-21T00:36:42.757Z,1012.84
2019-04-21T00:37:54.604Z,1012.77
2019-04-21T00:39:07.055Z,1012.81
2019-04-21T00:40:54.088Z,1012.77
2019-04-21T00:41:56.337Z,1012.74
2019-04-21T00:42:48.877Z,1012.81
2019-04-21T00:43:44.731Z,1012.75
2019-04-21T00:44:44.364Z,1012.75
2019-04-21T00:45:44.659Z,1012.67
2019-04-21T00:46:47.729Z,1012.70
2019-04-21T00:47:53.142Z,1012.73
2019-04-21T00:48:53.959Z,1012.65
2019-04-21T00:49:56.666Z,1012.63
2019-04-21T00:51:14.997Z,1012.56
2019-04-21T00:52:07.048Z,1012.58
2019-04-21T00:53:05.746Z,1012.55
2019-04-21T00:54:00.980Z,1012.52
2019-04-21T00:55:03.936Z,1012.58
2019-04-21T00:55:59.416Z,1012.55
2019-04-21T00:56:56.237Z,1012.58
2019-04-21T00:57:59.510Z,1012.52
2019-04-21T00:58:53.740Z,1012.54
2019-04-21T00:59:55.763Z,1012.52
2019-04-21T01:00:51.279Z,1012.43
2019-04-21T01:01:55.467Z,1012.47
2019-04-21T01:02:59.393Z,1012.49
2019-04-21T01:03:57.915Z,1012.44
2019-04-21T01:05:02.093Z,1012.47
2019-04-21T01:06:11.443Z,1012.48
2019-04-21T01:06:54.406Z,1012.46
2019-04-21T01:07:50.375Z,1012.36
2019-04-21T01:08:55.712Z,1012.42
2019-04-21T01:09:45.276Z,1012.41
2019-04-21T01:10:43.933Z,1012.35
2019-04-21T01:11:55.376Z,1012.37
2019-04-21T01:12:56.118Z,1012.29
2019-04-21T01:13:59.577Z,1012.27
2019-04-21T01:14:58.167Z,1012.25
2019-04-21T01:15:53.034Z,1012.27
2019-04-21T01:16:53.090Z,1012.24
2019-04-21T01:17:52.146Z,1012.25
2019-04-21T01:18:51.705Z,1012.24
2019-04-21T01:19:46.633Z,1012.28
2019-04-21T01:20:31.588Z,1012.26
2019-04-21T01:21:30.526Z,1012.20
2019-04-21T01:22:30.594Z,1012.29
2019-04-21T01:23:31.728Z,1012.18
2019-04-21T01:24:34.453Z,1012.14
2019-04-21T01:25:38.258Z,1012.19
2019-04-21T01:26:43.795Z,1012.16
2019-04-21T01:27:52.230Z,1012.15
2019-04-21T01:28:51.126Z,1012.16
2019-04-21T01:29:58.346Z,1012.08
2019-04-21T01:30:51.789Z,1012.08
2019-04-21T01:31:48.475Z,1012.11
2019-04-21T01:32:57.594Z,1012.07
2019-04-21T01:33:52.134Z,1012.13
2019-04-21T01:34:51.368Z,1012.04
2019-04-21T01:35:47.994Z,1012.05
2019-04-21T01:36:48.615Z,1012.01
2019-04-21T01:38:12.135Z,1012.07
2019-04-21T01:38:53.779Z,1012.00
2019-04-21T01:39:54.522Z,1011.96
2019-04-21T01:40:56.768Z,1011.98
2019-04-21T01:41:52.324Z,1011.87
2019-04-21T01:42:53.934Z,1011.92
2019-04-21T01:43:50.288Z,1011.86
2019-04-21T01:44:52.313Z,1011.88
2019-04-21T01:45:48.663Z,1011.93
2019-04-21T01:46:48.653Z,1011.84
2019-04-21T01:47:48.958Z,1011.90
2019-04-21T01:48:42.831Z,1011.88
2019-04-21T01:49:43.014Z,1011.86
2019-04-21T01:50:47.043Z,1011.90
2019-04-21T01:52:03.255Z,1011.86
2019-04-21T01:53:12.667Z,1011.82
2019-04-21T01:54:01.317Z,1011.83
2019-04-21T01:54:55.825Z,1011.86
2019-04-21T01:55:54.220Z,1011.88
2019-04-21T01:56:51.415Z,1011.83
2019-04-21T01:57:49.426Z,1011.82
2019-04-21T01:58:42.809Z,1011.79
2019-04-21T01:59:42.564Z,1011.79
2019-04-21T02:00:43.887Z,1011.82
2019-04-21T02:01:56.363Z,1011.87
2019-04-21T02:02:57.793Z,1011.89
2019-04-21T02:03:56.845Z,1011.83
2019-04-21T02:05:01.199Z,1011.89
2019-04-21T02:06:00.025Z,1011.92
2019-04-21T02:06:50.226Z,1011.95
2019-04-21T02:07:50.127Z,1011.87
2019-04-21T02:08:49.088Z,1011.88
2019-04-21T02:09:50.923Z,1011.89
2019-04-21T02:10:57.528Z,1011.90
2019-04-21T02:11:55.084Z,1011.88
2019-04-21T02:12:52.546Z,1011.84
2019-04-21T02:13:57.695Z,1011.87
2019-04-21T02:14:58.202Z,1011.84
2019-04-21T02:15:55.816Z,1011.84
2019-04-21T02:16:52.057Z,1011.82
2019-04-21T02:17:53.790Z,1011.91
2019-04-21T02:18:52.926Z,1011.81
2019-04-21T02:19:48.056Z,1011.84
2019-04-21T02:20:43.569Z,1011.86
2019-04-21T02:21:43.654Z,1011.86
2019-04-21T02:23:07.358Z,1011.83
2019-04-21T02:24:58.388Z,1011.79
2019-04-21T02:25:51.075Z,1011.84
2019-04-21T02:26:54.294Z,1011.80
2019-04-21T02:28:01.249Z,1011.78
2019-04-21T02:28:55.583Z,1011.75
2019-04-21T02:29:55.978Z,1011.78
2019-04-21T02:31:05.336Z,1011.70
2019-04-21T02:32:01.971Z,1011.77
2019-04-21T02:34:00.281Z,1011.74
2019-04-21T02:35:12.346Z,1011.77
2019-04-21T02:36:15.402Z,1011.71
2019-04-21T02:37:17.206Z,1011.68
2019-04-21T02:39:12.298Z,1011.72
2019-04-21T02:40:04.218Z,1011.72
2019-04-21T02:44:59.896Z,1011.62
2019-04-21T02:46:10.520Z,1011.68
2019-04-21T02:48:03.976Z,1011.64
2019-04-21T02:49:06.037Z,1011.63
2019-04-21T02:50:22.333Z,1011.61
2019-04-21T02:51:00.332Z,1011.61
2019-04-21T02:52:01.227Z,1011.57
2019-04-21T02:53:09.555Z,1011.58
2019-04-21T02:54:38.486Z,1011.54
2019-04-21T02:55:02.285Z,1011.60
2019-04-21T02:56:00.665Z,1011.57
2019-04-21T02:57:08.560Z,1011.54
2019-04-21T02:59:02.425Z,1011.40
2019-04-21T03:01:03.261Z,1011.50
2019-04-21T03:02:03.587Z,1011.46
2019-04-21T03:03:58.801Z,1011.44
2019-04-21T03:05:01.790Z,1011.42
2019-04-21T03:06:02.634Z,1011.41
2019-04-21T03:07:11.430Z,1011.39
2019-04-21T03:09:15.970Z,1011.39
2019-04-21T03:10:04.834Z,1011.34
2019-04-21T03:13:05.006Z,1011.28
2019-04-21T03:14:05.544Z,1011.33
2019-04-21T03:15:03.681Z,1011.30
2019-04-21T03:16:13.711Z,1011.38
2019-04-21T03:16:57.698Z,1011.34
2019-04-21T03:18:06.523Z,1011.32
2019-04-21T03:19:04.916Z,1011.28
2019-04-21T03:21:09.331Z,1011.26
2019-04-21T03:22:07.132Z,1011.26
2019-04-21T03:23:15.790Z,1011.18
2019-04-21T03:24:01.225Z,1011.26
2019-04-21T03:25:23.462Z,1011.18
2019-04-21T03:27:12.121Z,1011.13
2019-04-21T03:29:03.630Z,1011.12
2019-04-21T03:29:59.312Z,1011.11
2019-04-21T03:31:19.699Z,1011.11
2019-04-21T03:32:39.024Z,1011.09
2019-04-21T03:33:45.452Z,1011.14
2019-04-21T03:35:37.884Z,1011.07
2019-04-21T03:38:59.150Z,1011.01
2019-04-21T03:39:59.837Z,1011.04
2019-04-21T03:40:57.342Z,1011.05
2019-04-21T03:42:07.051Z,1011.04
2019-04-21T03:43:14.489Z,1011.05
2019-04-21T03:43:58.922Z,1011.04
2019-04-21T03:45:03.724Z,1011.07
2019-04-21T03:46:01.844Z,1011.05
2019-04-21T03:48:05.110Z,1010.95
2019-04-21T03:49:02.233Z,1011.04
2019-04-21T03:50:05.035Z,1011.05
2019-04-21T03:50:58.921Z,1011.05
2019-04-21T03:52:03.208Z,1011.07
2019-04-21T03:53:02.749Z,1011.04
2019-04-21T03:54:00.677Z,1011.00
2019-04-21T03:55:25.210Z,1011.05
2019-04-21T03:57:11.267Z,1011.05
2019-04-21T04:00:08.921Z,1011.04
2019-04-21T04:03:28.222Z,1011.00
2019-04-21T04:05:05.667Z,1010.97
2019-04-21T04:05:08.961Z,1011.00
2019-04-21T04:07:28.863Z,1011.04
2019-04-21T04:08:28.683Z,1010.93
2019-04-21T04:09:19.371Z,1011.01
2019-04-21T04:11:19.637Z,1011.03
2019-04-21T04:11:54.724Z,1011.03
2019-04-21T04:13:00.817Z,1011.03
2019-04-21T04:14:05.457Z,1010.96
2019-04-21T04:17:07.535Z,1010.94
2019-04-21T04:17:54.270Z,1010.93
2019-04-21T04:18:57.994Z,1010.92
2019-04-21T04:21:03.050Z,1010.93
2019-04-21T04:22:04.338Z,1010.90
2019-04-21T04:23:02.929Z,1010.99
2019-04-21T04:24:04.027Z,1011.00
2019-04-21T04:26:02.325Z,1010.87
2019-04-21T04:28:09.920Z,1010.90
2019-04-21T04:29:05.959Z,1010.84
2019-04-21T04:29:59.054Z,1010.86
2019-04-21T04:31:06.512Z,1010.87
2019-04-21T04:31:56.940Z,1010.83
2019-04-21T04:32:57.392Z,1010.85
2019-04-21T04:35:03.869Z,1010.79
2019-04-21T04:36:13.095Z,1010.88
2019-04-21T04:37:06.914Z,1010.85
2019-04-21T04:38:00.939Z,1010.92
2019-04-21T04:39:14.465Z,1010.90
2019-04-21T04:40:13.384Z,1010.91
2019-04-21T04:41:06.219Z,1010.90
2019-04-21T04:42:18.225Z,1010.89
2019-04-21T04:43:08.325Z,1010.93
2019-04-21T04:44:07.083Z,1010.89
2019-04-21T04:45:58.976Z,1010.84
2019-04-21T04:47:04.557Z,1010.83
2019-04-21T04:47:59.896Z,1010.85
2019-04-21T04:49:06.073Z,1010.89
2019-04-21T04:49:51.954Z,1010.89
2019-04-21T04:51:01.944Z,1010.89
2019-04-21T04:52:51.253Z,1010.89
2019-04-21T04:54:21.811Z,1010.88
2019-04-21T04:57:08.498Z,1010.92
2019-04-21T04:59:22.653Z,1010.89
2019-04-21T05:01:08.213Z,1010.91
2019-04-21T05:02:56.305Z,1010.87
2019-04-21T05:05:07.064Z,1010.89
2019-04-21T05:06:10.058Z,1010.78
2019-04-21T05:06:58.443Z,1010.85
2019-04-21T05:08:23.970Z,1010.83
2019-04-21T05:11:07.690Z,1010.82
2019-04-21T05:11:55.878Z,1010.85
2019-04-21T05:12:58.650Z,1010.80
2019-04-21T05:15:06.427Z,1010.80
2019-04-21T05:16:03.528Z,1010.86
2019-04-21T05:17:57.717Z,1010.81
2019-04-21T05:19:10.152Z,1010.81
2019-04-21T05:21:07.472Z,1010.76
2019-04-21T05:21:58.793Z,1010.76
2019-04-21T05:22:53.897Z,1010.80
2019-04-21T05:23:48.494Z,1010.82
2019-04-21T05:24:48.309Z,1010.81
2019-04-21T05:25:41.632Z,1010.86
2019-04-21T05:26:49.078Z,1010.78
2019-04-21T05:27:43.320Z,1010.74
2019-04-21T05:28:40.691Z,1010.74
2019-04-21T05:29:55.535Z,1010.75
2019-04-21T05:31:00.495Z,1010.70
2019-04-21T05:31:58.447Z,1010.71
2019-04-21T05:32:52.780Z,1010.72
2019-04-21T05:33:54.305Z,1010.76
2019-04-21T05:34:50.793Z,1010.74
2019-04-21T05:35:50.699Z,1010.77
2019-04-21T05:36:53.927Z,1010.79
2019-04-21T05:37:47.612Z,1010.77
2019-04-21T05:38:47.755Z,1010.76
2019-04-21T05:39:45.163Z,1010.65
2019-04-21T05:40:40.190Z,1010.71
2019-04-21T05:41:41.013Z,1010.75
2019-04-21T05:42:45.893Z,1010.69
2019-04-21T05:43:54.579Z,1010.68
2019-04-21T05:44:58.138Z,1010.65
2019-04-21T05:45:56.748Z,1010.63
2019-04-21T05:47:05.542Z,1010.68
2019-04-21T05:47:57.897Z,1010.71
2019-04-21T05:48:52.174Z,1010.67
2019-04-21T05:49:51.285Z,1010.72
2019-04-21T05:50:52.176Z,1010.71
2019-04-21T05:51:44.280Z,1010.68
2019-04-21T05:52:44.970Z,1010.64
2019-04-21T05:53:49.233Z,1010.68
2019-04-21T05:54:57.427Z,1010.68
2019-04-21T05:55:56.922Z,1010.71
2019-04-21T05:56:49.837Z,1010.66
2019-04-21T05:57:48.120Z,1010.69
2019-04-21T05:58:54.079Z,1010.60
2019-04-21T05:59:51.595Z,1010.62
2019-04-21T06:02:02.575Z,1010.65
2019-04-21T06:02:55.225Z,1010.67
2019-04-21T06:07:02.090Z,1010.62
2019-04-21T06:07:48.212Z,1010.60
2019-04-21T06:08:48.120Z,1010.63
2019-04-21T06:09:55.418Z,1010.61
2019-04-21T06:10:58.818Z,1010.66
2019-04-21T06:11:51.601Z,1010.62
2019-04-21T06:12:51.060Z,1010.66
2019-04-21T06:13:55.525Z,1010.63
2019-04-21T06:14:54.561Z,1010.59
2019-04-21T06:15:57.956Z,1010.56
2019-04-21T06:16:55.560Z,1010.56
2019-04-21T06:17:49.271Z,1010.58
2019-04-21T06:18:53.157Z,1010.53
2019-04-21T06:19:56.937Z,1010.64
2019-04-21T06:20:54.700Z,1010.52
2019-04-21T06:21:50.842Z,1010.54
2019-04-21T06:22:52.020Z,1010.60
2019-04-21T06:23:49.715Z,1010.55
2019-04-21T06:25:15.237Z,1010.54
2019-04-21T06:26:18.036Z,1010.46
2019-04-21T06:27:00.358Z,1010.52
2019-04-21T06:27:52.192Z,1010.54
2019-04-21T06:28:51.815Z,1010.48
2019-04-21T06:29:52.812Z,1010.51
2019-04-21T06:30:59.446Z,1010.54
2019-04-21T06:32:17.341Z,1010.51
2019-04-21T06:32:50.872Z,1010.40
2019-04-21T06:34:04.930Z,1010.48
2019-04-21T06:35:07.347Z,1010.44
2019-04-21T06:36:11.412Z,1010.52
2019-04-21T06:37:49.422Z,1010.50
2019-04-21T06:39:00.035Z,1010.51
2019-04-21T06:40:01.894Z,1010.56
2019-04-21T06:40:55.995Z,1010.52
2019-04-21T06:41:49.137Z,1010.56
2019-04-21T06:43:07.932Z,1010.48
2019-04-21T06:43:56.303Z,1010.52
2019-04-21T06:46:12.324Z,1010.50
2019-04-21T06:47:05.950Z,1010.55
2019-04-21T06:47:50.168Z,1010.53
2019-04-21T06:48:55.728Z,1010.51
2019-04-21T06:49:50.970Z,1010.48
2019-04-21T06:50:52.950Z,1010.53
2019-04-21T06:51:48.352Z,1010.51
2019-04-21T06:53:59.584Z,1010.49
2019-04-21T06:54:56.032Z,1010.47
2019-04-21T06:55:57.424Z,1010.53
2019-04-21T06:57:04.873Z,1010.50
2019-04-21T06:57:55.802Z,1010.52
2019-04-21T06:58:51.564Z,1010.50
2019-04-21T06:59:43.103Z,1010.49
2019-04-21T07:00:47.668Z,1010.48
2019-04-21T07:01:52.720Z,1010.57
2019-04-21T07:02:52.831Z,1010.53
2019-04-21T07:04:03.097Z,1010.50
2019-04-21T07:06:00.400Z,1010.50
2019-04-21T07:08:08.403Z,1010.56
2019-04-21T07:09:52.879Z,1010.55
2019-04-21T07:10:52.084Z,1010.53
2019-04-21T07:11:52.647Z,1010.55
2019-04-21T07:12:45.001Z,1010.56
2019-04-21T07:13:44.589Z,1010.55
2019-04-21T07:14:51.029Z,1010.56
2019-04-21T07:15:50.139Z,1010.53
2019-04-21T07:16:59.585Z,1010.54
2019-04-21T07:17:49.987Z,1010.57
2019-04-21T07:19:00.060Z,1010.55
2019-04-21T07:20:07.409Z,1010.60
2019-04-21T07:20:50.446Z,1010.54
2019-04-21T07:21:54.336Z,1010.55
2019-04-21T07:22:50.986Z,1010.51
2019-04-21T07:23:53.822Z,1010.55
2019-04-21T07:24:48.209Z,1010.52
2019-04-21T07:25:51.969Z,1010.53
2019-04-21T07:26:52.681Z,1010.53
2019-04-21T07:27:52.045Z,1010.50
2019-04-21T07:28:56.964Z,1010.50
2019-04-21T07:29:56.660Z,1010.52
2019-04-21T07:30:54.605Z,1010.49
2019-04-21T07:32:00.284Z,1010.50
2019-04-21T07:32:58.016Z,1010.51
2019-04-21T07:34:51.173Z,1010.57
2019-04-21T07:35:51.753Z,1010.52
2019-04-21T07:37:52.300Z,1010.50
2019-04-21T07:38:45.457Z,1010.53
2019-04-21T07:39:45.181Z,1010.52
2019-04-21T07:40:42.902Z,1010.57
2019-04-21T07:41:46.932Z,1010.50
2019-04-21T07:42:47.039Z,1010.58
2019-04-21T07:43:47.280Z,1010.56
2019-04-21T07:44:44.728Z,1010.53
2019-04-21T07:45:40.562Z,1010.58
2019-04-21T07:46:41.720Z,1010.54
2019-04-21T07:47:53.467Z,1010.47
2019-04-21T07:48:52.032Z,1010.48
2019-04-21T07:49:53.168Z,1010.48
2019-04-21T07:50:48.799Z,1010.45
2019-04-21T07:51:50.997Z,1010.45
2019-04-21T07:52:53.400Z,1010.47
2019-04-21T07:53:55.973Z,1010.47
2019-04-21T07:54:57.200Z,1010.49
2019-04-21T07:56:33.204Z,1010.41
2019-04-21T07:58:02.717Z,1010.48
2019-04-21T07:58:54.199Z,1010.42
2019-04-21T08:00:01.204Z,1010.42
2019-04-21T08:00:51.170Z,1010.43
2019-04-21T08:01:50.723Z,1010.44
2019-04-21T08:02:52.386Z,1010.48
2019-04-21T08:03:45.389Z,1010.44
2019-04-21T08:05:07.659Z,1010.45
2019-04-21T08:05:53.012Z,1010.52
2019-04-21T08:06:49.429Z,1010.47
2019-04-21T08:07:51.886Z,1010.45
2019-04-21T08:08:51.072Z,1010.51
2019-04-21T08:09:47.263Z,1010.45
2019-04-21T08:10:47.142Z,1010.46
2019-04-21T08:11:41.614Z,1010.44
2019-04-21T08:12:43.205Z,1010.47
2019-04-21T08:13:48.535Z,1010.46
2019-04-21T08:14:55.863Z,1010.39
2019-04-21T08:15:51.279Z,1010.48
2019-04-21T08:16:52.450Z,1010.42
2019-04-21T08:17:47.180Z,1010.40
2019-04-21T08:18:47.432Z,1010.47
2019-04-21T08:19:43.032Z,1010.46
2019-04-21T08:20:41.910Z,1010.41
2019-04-21T08:21:54.625Z,1010.39
2019-04-21T08:24:00.205Z,1010.43
2019-04-21T08:24:50.329Z,1010.34
2019-04-21T08:25:56.235Z,1010.35
2019-04-21T08:26:51.007Z,1010.43
2019-04-21T08:27:55.467Z,1010.40
2019-04-21T08:28:49.451Z,1010.40
2019-04-21T08:29:46.230Z,1010.40
2019-04-21T08:30:44.402Z,1010.43
2019-04-21T08:34:54.881Z,1010.50
2019-04-21T08:36:44.730Z,1010.50
2019-04-21T08:37:42.967Z,1010.45
2019-04-21T08:38:51.541Z,1010.52
2019-04-21T08:39:58.098Z,1010.46
2019-04-21T08:41:04.893Z,1010.48
2019-04-21T08:41:44.040Z,1010.49
2019-04-21T08:42:47.751Z,1010.48
2019-04-21T08:43:44.676Z,1010.45
2019-04-21T08:44:46.879Z,1010.49
2019-04-21T08:45:48.223Z,1010.36
2019-04-21T08:46:48.079Z,1010.45
2019-04-21T08:47:45.763Z,1010.44
2019-04-21T08:48:52.592Z,1010.47
2019-04-21T08:49:48.049Z,1010.51
2019-04-21T08:50:44.149Z,1010.46
2019-04-21T08:51:50.475Z,1010.40
2019-04-21T08:52:50.679Z,1010.39
2019-04-21T08:53:53.558Z,1010.37
2019-04-21T08:54:52.123Z,1010.36
2019-04-21T08:55:49.313Z,1010.39
2019-04-21T08:56:49.605Z,1010.37
2019-04-21T08:57:52.667Z,1010.36
2019-04-21T08:58:52.162Z,1010.39
2019-04-21T09:00:51.420Z,1010.40
2019-04-21T09:01:50.781Z,1010.49
2019-04-21T09:02:48.655Z,1010.37
2019-04-21T09:03:53.936Z,1010.36
2019-04-21T09:04:50.715Z,1010.39
2019-04-21T09:05:45.648Z,1010.39
2019-04-21T09:07:49.308Z,1010.33
2019-04-21T09:08:46.155Z,1010.40
2019-04-21T09:09:47.506Z,1010.29
2019-04-21T09:10:47.385Z,1010.28
2019-04-21T09:11:49.886Z,1010.25
2019-04-21T09:12:49.938Z,1010.28
2019-04-21T09:13:44.582Z,1010.32
2019-04-21T09:14:41.520Z,1010.30
2019-04-21T09:15:41.903Z,1010.28
2019-04-21T09:16:44.006Z,1010.23
2019-04-21T09:17:37.743Z,1010.22
2019-04-21T09:18:42.100Z,1010.21
2019-04-21T09:19:51.461Z,1010.28
2019-04-21T09:22:41.305Z,1010.20
2019-04-21T09:23:45.232Z,1010.13
2019-04-21T09:24:45.660Z,1010.19
2019-04-21T09:25:46.465Z,1010.13
2019-04-21T09:26:41.329Z,1010.10
2019-04-21T09:27:41.950Z,1010.13
2019-04-21T09:28:39.592Z,1010.15
2019-04-21T09:29:36.079Z,1010.12
2019-04-21T09:30:26.430Z,1010.11
2019-04-21T09:31:30.957Z,1010.12
2019-04-21T09:32:29.398Z,1010.15
2019-04-21T09:33:34.564Z,1010.13
2019-04-21T09:34:33.192Z,1010.12
2019-04-21T09:35:27.073Z,1010.06
2019-04-21T09:36:33.640Z,1010.09
2019-04-21T09:37:39.300Z,1010.03
2019-04-21T09:38:33.838Z,1010.03
2019-04-21T09:39:29.501Z,1010.04
2019-04-21T09:40:32.724Z,1010.03
2019-04-21T09:41:27.871Z,1010.04
2019-04-21T09:42:32.324Z,1009.99
2019-04-21T09:43:35.693Z,1009.99
2019-04-21T09:44:31.451Z,1010.03
2019-04-21T09:45:26.544Z,1009.99
2019-04-21T09:46:25.422Z,1009.94
2019-04-21T09:47:35.140Z,1010.00
2019-04-21T09:48:26.728Z,1009.97
2019-04-21T09:49:27.899Z,1009.90
2019-04-21T09:50:26.579Z,1009.96
2019-04-21T09:51:25.869Z,1009.99
2019-04-21T09:52:30.137Z,1009.93
2019-04-21T09:53:32.823Z,1009.91
2019-04-21T09:54:31.141Z,1009.85
2019-04-21T09:56:45.652Z,1009.90
2019-04-21T09:57:43.115Z,1009.87
2019-04-21T09:58:40.839Z,1009.87
2019-04-21T09:59:40.105Z,1009.92
2019-04-21T10:00:45.740Z,1009.89
2019-04-21T10:01:49.069Z,1009.90
2019-04-21T10:02:42.912Z,1009.88
2019-04-21T10:03:41.226Z,1009.90
2019-04-21T10:04:35.794Z,1009.89
2019-04-21T10:05:36.012Z,1009.79
2019-04-21T10:06:35.028Z,1009.79
2019-04-21T10:07:39.122Z,1009.82
2019-04-21T10:08:36.402Z,1009.78
2019-04-21T10:09:35.565Z,1009.80
2019-04-21T10:10:34.731Z,1009.84
2019-04-21T10:11:35.529Z,1009.67
2019-04-21T10:12:35.083Z,1009.71
2019-04-21T10:13:36.086Z,1009.68
2019-04-21T10:14:34.694Z,1009.74
2019-04-21T10:15:35.518Z,1009.67
2019-04-21T10:16:34.663Z,1009.63
2019-04-21T10:17:35.033Z,1009.65
2019-04-21T10:18:35.760Z,1009.66
2019-04-21T10:19:34.646Z,1009.60
2019-04-21T10:20:34.625Z,1009.61
2019-04-21T10:21:35.977Z,1009.60
2019-04-21T10:22:35.080Z,1009.65
2019-04-21T10:23:35.794Z,1009.63
2019-04-21T10:24:34.591Z,1009.53
2019-04-21T10:25:34.625Z,1009.49
2019-04-21T10:26:35.581Z,1009.60
2019-04-21T10:27:34.915Z,1009.51
2019-04-21T10:28:35.116Z,1009.56
2019-04-21T10:29:35.808Z,1009.52
2019-04-21T10:30:36.405Z,1009.47
2019-04-21T10:31:34.680Z,1009.47
2019-04-21T10:32:34.590Z,1009.48
2019-04-21T10:33:34.592Z,1009.51
2019-04-21T10:34:34.846Z,1009.43
2019-04-21T10:35:35.259Z,1009.46
2019-04-21T10:36:35.107Z,1009.44
2019-04-21T10:37:45.537Z,1009.45
2019-04-21T10:38:40.795Z,1009.40
2019-04-21T10:39:35.719Z,1009.42
2019-04-21T10:40:37.149Z,1009.42
2019-04-21T10:41:35.123Z,1009.40
2019-04-21T10:42:35.459Z,1009.34
2019-04-21T10:43:35.605Z,1009.33
2019-04-21T10:44:34.720Z,1009.38
2019-04-21T10:45:34.905Z,1009.34
2019-04-21T10:46:35.023Z,1009.27
2019-04-21T10:47:34.642Z,1009.28
2019-04-21T10:48:35.994Z,1009.25
2019-04-21T10:49:34.936Z,1009.24
2019-04-21T10:50:34.830Z,1009.27
2019-04-21T10:51:35.173Z,1009.33
2019-04-21T10:52:35.878Z,1009.28
2019-04-21T10:53:34.543Z,1009.27
2019-04-21T10:54:49.387Z,1009.16
2019-04-21T10:55:50.551Z,1009.21
2019-04-21T10:56:41.125Z,1009.19
2019-04-21T10:57:35.288Z,1009.08
2019-04-21T10:58:34.270Z,1009.14
2019-04-21T10:59:35.319Z,1009.12
2019-04-21T11:00:34.462Z,1009.13
2019-04-21T11:01:34.733Z,1009.10
2019-04-21T11:02:34.862Z,1009.09
2019-04-21T11:03:35.257Z,1009.08
2019-04-21T11:04:37.385Z,1008.98
2019-04-21T11:05:34.522Z,1008.99
2019-04-21T11:06:34.738Z,1008.90
2019-04-21T11:07:45.409Z,1008.99
2019-04-21T11:08:39.606Z,1009.00
2019-04-21T11:09:36.126Z,1009.03
2019-04-21T11:10:34.134Z,1008.95
2019-04-21T11:11:34.238Z,1008.94
2019-04-21T11:12:36.498Z,1008.94
2019-04-21T11:13:34.756Z,1008.97
2019-04-21T11:14:35.488Z,1008.96
2019-04-21T11:15:35.043Z,1008.96
2019-04-21T11:16:35.175Z,1008.92
2019-04-21T11:17:34.234Z,1008.90
2019-04-21T11:18:34.095Z,1008.96
2019-04-21T11:19:34.877Z,1008.94
2019-04-21T11:20:35.121Z,1008.90
2019-04-21T11:21:34.644Z,1008.76
2019-04-21T11:22:35.272Z,1008.85
2019-04-21T11:23:35.224Z,1008.83
2019-04-21T11:24:35.093Z,1008.82
2019-04-21T11:25:33.985Z,1008.81
2019-04-21T11:26:33.968Z,1008.82
2019-04-21T11:27:35.115Z,1008.77
2019-04-21T11:28:34.610Z,1008.71
2019-04-21T11:29:35.057Z,1008.70
2019-04-21T11:30:33.930Z,1008.72
2019-04-21T11:31:33.982Z,1008.74
2019-04-21T11:32:35.060Z,1008.75
2019-04-21T11:33:35.469Z,1008.75
2019-04-21T11:34:33.893Z,1008.78
2019-04-21T11:35:35.145Z,1008.77
2019-04-21T11:36:35.020Z,1008.70
2019-04-21T11:37:34.613Z,1008.74
2019-04-21T11:38:51.336Z,1008.65
2019-04-21T11:39:44.603Z,1008.66
2019-04-21T11:40:36.027Z,1008.74
2019-04-21T11:41:34.120Z,1008.66
2019-04-21T11:42:33.804Z,1008.74
2019-04-21T11:43:34.979Z,1008.69
2019-04-21T11:44:35.201Z,1008.66
2019-04-21T11:45:34.711Z,1008.63
2019-04-21T11:46:34.248Z,1008.63
2019-04-21T11:47:34.245Z,1008.61
2019-04-21T11:48:34.518Z,1008.61
2019-04-21T11:49:34.849Z,1008.63
2019-04-21T11:50:34.990Z,1008.60
2019-04-21T11:51:33.717Z,1008.55
2019-04-21T11:52:34.723Z,1008.58
2019-04-21T11:53:34.837Z,1008.59
2019-04-21T11:54:34.963Z,1008.59
2019-04-21T11:55:38.259Z,1008.58
2019-04-21T11:56:34.841Z,1008.64
2019-04-21T11:57:39.241Z,1008.61
2019-04-21T11:58:35.969Z,1008.59
2019-04-21T11:59:33.653Z,1008.61
2019-04-21T12:00:33.654Z,1008.52
2019-04-21T12:01:33.825Z,1008.59
2019-04-21T12:02:33.699Z,1008.55
2019-04-21T12:03:33.719Z,1008.54
2019-04-21T12:04:33.717Z,1008.46
2019-04-21T12:05:33.580Z,1008.44
2019-04-21T12:06:39.608Z,1008.47
2019-04-21T12:07:35.359Z,1008.50
2019-04-21T12:08:40.393Z,1008.43
2019-04-21T12:09:35.417Z,1008.46
2019-04-21T12:10:33.532Z,1008.46
2019-04-21T12:11:33.717Z,1008.41
2019-04-21T12:12:33.504Z,1008.38
2019-04-21T12:13:34.231Z,1008.43
2019-04-21T12:14:34.203Z,1008.37
2019-04-21T12:15:34.580Z,1008.42
2019-04-21T12:16:34.984Z,1008.40
2019-04-21T12:17:34.139Z,1008.38
2019-04-21T12:18:34.008Z,1008.32
2019-04-21T12:19:34.613Z,1008.36
2019-04-21T12:20:33.493Z,1008.32
2019-04-21T12:21:47.904Z,1008.29
2019-04-21T12:22:35.736Z,1008.30
2019-04-21T12:23:34.375Z,1008.23
2019-04-21T12:24:34.607Z,1008.27
2019-04-21T12:25:33.384Z,1008.27
2019-04-21T12:26:33.858Z,1008.26
2019-04-21T12:27:33.969Z,1008.27
2019-04-21T12:28:34.252Z,1008.19
2019-04-21T12:29:33.587Z,1008.25
2019-04-21T12:30:33.637Z,1008.13
2019-04-21T12:31:33.744Z,1008.13
2019-04-21T12:32:33.833Z,1008.17
2019-04-21T12:33:34.134Z,1008.15
2019-04-21T12:34:34.273Z,1008.20
2019-04-21T12:35:33.571Z,1008.04
2019-04-21T12:36:33.843Z,1008.14
2019-04-21T12:37:33.262Z,1008.08
2019-04-21T12:38:42.666Z,1008.02
2019-04-21T12:39:34.776Z,1008.03
2019-04-21T12:40:34.593Z,1008.04
2019-04-21T12:41:33.223Z,1007.98
2019-04-21T12:42:34.462Z,1008.01
2019-04-21T12:43:33.192Z,1007.97
2019-04-21T12:44:33.596Z,1007.99
2019-04-21T12:45:33.699Z,1007.88
2019-04-21T12:46:33.958Z,1007.96
2019-04-21T12:47:34.100Z,1007.93
2019-04-21T12:48:33.803Z,1007.88
2019-04-21T12:49:33.845Z,1007.86
2019-04-21T12:50:34.068Z,1007.80
2019-04-21T12:51:33.730Z,1007.78
2019-04-21T12:52:33.597Z,1007.78
2019-04-21T12:53:34.027Z,1007.73
2019-04-21T12:54:33.381Z,1007.85
2019-04-21T12:55:38.396Z,1007.76
2019-04-21T12:56:34.056Z,1007.68
2019-04-21T12:57:33.331Z,1007.70
2019-04-21T12:58:33.218Z,1007.72
2019-04-21T12:59:34.557Z,1007.65
2019-04-21T13:00:33.361Z,1007.68
2019-04-21T13:01:33.018Z,1007.71
2019-04-21T13:02:33.821Z,1007.60
2019-04-21T13:03:34.086Z,1007.54
2019-04-21T13:04:33.555Z,1007.48
2019-04-21T13:05:33.788Z,1007.50
2019-04-21T13:06:33.872Z,1007.51
2019-04-21T13:07:33.208Z,1007.51
2019-04-21T13:08:45.551Z,1007.47
2019-04-21T13:09:35.690Z,1007.52
2019-04-21T13:10:33.966Z,1007.45
2019-04-21T13:11:33.204Z,1007.43
2019-04-21T13:12:33.259Z,1007.40
2019-04-21T13:13:32.902Z,1007.33
2019-04-21T13:14:33.737Z,1007.31
2019-04-21T13:15:33.653Z,1007.30
2019-04-21T13:16:41.164Z,1007.32
2019-04-21T13:17:47.828Z,1007.38